createdAt,value
2022-12-14T00:01:31.571Z,29.20
2022-12-14T00:03:58.223Z,29.10
2022-12-14T00:06:29.116Z,29.00
2022-12-14T00:08:56.429Z,29.80
2022-12-14T00:11:23.241Z,30.30
2022-12-14T00:13:54.197Z,29.10
2022-12-14T00:16:21.379Z,29.10
2022-12-14T00:18:52.424Z,29.10
2022-12-14T00:21:19.376Z,29.10
2022-12-14T00:23:46.658Z,29.10
2022-12-14T00:26:17.226Z,29.10
2022-12-14T00:28:44.349Z,29.10
2022-12-14T00:31:11.269Z,29.10
2022-12-14T00:33:38.141Z,29.10
2022-12-14T00:36:07.412Z,27.50
2022-12-14T00:38:33.909Z,27.30
2022-12-14T00:41:00.600Z,27.80
2022-12-14T00:43:27.224Z,28.90
2022-12-14T00:45:53.833Z,29.10
2022-12-14T00:48:21.029Z,29.10
2022-12-14T00:50:48.637Z,27.70
2022-12-14T00:53:15.792Z,26.60
2022-12-14T00:55:43.558Z,27.20
2022-12-14T00:58:11.321Z,27.60
2022-12-14T01:00:37.950Z,27.90
2022-12-14T01:03:04.920Z,29.10
2022-12-14T01:05:33.466Z,28.90
2022-12-14T01:07:59.991Z,28.10
2022-12-14T01:10:26.652Z,27.30
2022-12-14T01:12:53.159Z,26.80
2022-12-14T01:15:19.769Z,26.30
2022-12-14T01:17:46.318Z,25.10
2022-12-14T01:20:12.840Z,25.40
2022-12-14T01:22:39.439Z,26.90
2022-12-14T01:25:06.163Z,27.50
2022-12-14T01:27:32.768Z,24.90
2022-12-14T01:29:59.262Z,24.40
2022-12-14T01:32:25.905Z,24.10
2022-12-14T01:34:52.417Z,23.80
2022-12-14T01:37:18.953Z,24.10
2022-12-14T01:39:46.389Z,23.60
2022-12-14T01:42:13.831Z,23.70
2022-12-14T01:44:40.426Z,24.10
2022-12-14T01:47:12.951Z,24.00
2022-12-14T01:49:42.400Z,24.30
2022-12-14T01:52:13.251Z,25.30
2022-12-14T01:54:41.986Z,25.10
2022-12-14T01:57:17.122Z,24.50
2022-12-14T01:59:45.401Z,24.90
2022-12-14T02:02:13.423Z,24.90
2022-12-14T02:04:42.653Z,24.90
2022-12-14T02:07:09.824Z,24.00
2022-12-14T02:09:37.825Z,23.30
2022-12-14T02:12:06.167Z,23.00
2022-12-14T02:14:34.154Z,23.30
2022-12-14T02:17:01.034Z,22.40
2022-12-14T02:19:27.867Z,23.60
2022-12-14T02:21:57.192Z,23.30
2022-12-14T02:24:23.799Z,24.00
2022-12-14T02:26:53.396Z,23.10
2022-12-14T02:29:38.980Z,21.60
2022-12-14T02:32:14.577Z,20.70
2022-12-14T02:34:53.391Z,20.70
2022-12-14T02:37:27.494Z,20.70
2022-12-14T02:39:54.032Z,20.70
2022-12-14T02:42:39.515Z,20.70
2022-12-14T02:45:09.833Z,20.70
2022-12-14T02:47:39.169Z,20.80
2022-12-14T02:50:08.847Z,20.70
2022-12-14T02:52:47.093Z,20.70
2022-12-14T02:55:16.654Z,20.70
2022-12-14T02:57:43.158Z,21.00
2022-12-14T03:00:10.112Z,20.70
2022-12-14T03:02:38.551Z,20.70
2022-12-14T03:05:05.368Z,20.60
2022-12-14T03:07:32.645Z,20.60
2022-12-14T03:10:01.651Z,20.60
2022-12-14T03:12:28.386Z,20.60
2022-12-14T03:14:55.835Z,20.60
2022-12-14T03:17:25.320Z,20.60
2022-12-14T03:20:01.896Z,20.60
2022-12-14T03:22:48.662Z,20.60
2022-12-14T03:25:17.491Z,20.70
2022-12-14T03:27:48.783Z,20.20
2022-12-14T03:30:31.672Z,20.70
2022-12-14T03:33:05.823Z,19.40
2022-12-14T03:35:42.262Z,18.40
2022-12-14T03:38:18.144Z,17.90
2022-12-14T03:40:52.958Z,19.10
2022-12-14T03:43:35.439Z,20.60
2022-12-14T03:46:08.132Z,19.30
2022-12-14T03:48:39.522Z,18.90
2022-12-14T03:51:18.432Z,18.30
2022-12-14T03:53:47.356Z,16.30
2022-12-14T03:56:24.174Z,17.50
2022-12-14T03:59:09.050Z,17.30
2022-12-14T04:01:41.925Z,17.60
2022-12-14T04:04:18.454Z,17.80
2022-12-14T04:06:51.144Z,17.50
2022-12-14T04:09:21.439Z,17.60
2022-12-14T04:12:09.794Z,17.80
2022-12-14T04:14:57.324Z,18.10
2022-12-14T04:17:45.009Z,19.70
2022-12-14T04:20:16.817Z,18.70
2022-12-14T04:22:47.257Z,18.40
2022-12-14T04:25:38.122Z,18.10
2022-12-14T04:28:38.027Z,19.30
2022-12-14T04:31:07.783Z,18.00
2022-12-14T04:33:48.571Z,18.10
2022-12-14T04:36:28.230Z,17.50
2022-12-14T04:38:58.288Z,17.20
2022-12-14T04:41:26.607Z,17.00
2022-12-14T04:43:55.007Z,17.00
2022-12-14T04:46:24.515Z,17.60
2022-12-14T04:48:55.452Z,17.90
2022-12-14T04:51:27.316Z,18.10
2022-12-14T04:53:57.914Z,18.80
2022-12-14T04:56:32.440Z,18.70
2022-12-14T04:58:59.089Z,19.80
2022-12-14T05:01:49.070Z,20.00
2022-12-14T05:04:18.762Z,20.10
2022-12-14T05:06:45.262Z,18.40
2022-12-14T05:09:14.759Z,18.60
2022-12-14T05:11:53.564Z,19.20
2022-12-14T05:14:24.549Z,19.60
2022-12-14T05:16:51.130Z,19.20
2022-12-14T05:19:17.799Z,19.80
2022-12-14T05:21:47.448Z,19.50
2022-12-14T05:24:14.675Z,19.10
2022-12-14T05:26:41.340Z,18.60
2022-12-14T05:29:08.219Z,19.00
2022-12-14T05:31:34.778Z,20.60
2022-12-14T05:34:01.319Z,20.60
2022-12-14T05:36:27.907Z,20.70
2022-12-14T05:38:54.480Z,20.60
2022-12-14T05:41:21.930Z,20.60
2022-12-14T05:43:49.156Z,20.80
2022-12-14T05:46:15.929Z,20.70
2022-12-14T05:48:47.477Z,20.70
2022-12-14T05:51:15.690Z,20.70
2022-12-14T05:53:42.468Z,20.70
2022-12-14T05:56:09.877Z,20.70
2022-12-14T05:58:36.833Z,20.70
2022-12-14T06:01:04.855Z,20.50
2022-12-14T06:03:31.698Z,20.80
2022-12-14T06:06:02.728Z,20.70
2022-12-14T06:08:36.279Z,20.70
2022-12-14T06:11:06.546Z,19.70
2022-12-14T06:13:33.143Z,18.90
2022-12-14T06:16:08.905Z,17.70
2022-12-14T06:18:35.570Z,17.80
2022-12-14T06:21:02.392Z,18.10
2022-12-14T06:23:29.414Z,17.80
2022-12-14T06:25:56.379Z,17.50
2022-12-14T06:28:23.384Z,17.80
2022-12-14T06:30:49.999Z,18.00
2022-12-14T06:33:16.583Z,18.50
2022-12-14T06:35:44.735Z,18.50
2022-12-14T06:38:12.051Z,17.80
2022-12-14T06:40:38.588Z,18.10
2022-12-14T06:43:05.686Z,17.90
2022-12-14T06:45:32.651Z,18.20
2022-12-14T06:47:59.270Z,18.10
2022-12-14T06:50:27.568Z,18.00
2022-12-14T06:52:56.099Z,18.00
2022-12-14T06:55:25.979Z,17.90
2022-12-14T06:57:53.177Z,18.20
2022-12-14T07:00:20.404Z,18.10
2022-12-14T07:02:47.653Z,17.30
2022-12-14T07:05:14.631Z,16.10
2022-12-14T07:07:41.594Z,17.60
2022-12-14T07:10:08.986Z,17.80
2022-12-14T07:12:35.707Z,17.30
2022-12-14T07:15:02.411Z,16.50
2022-12-14T07:17:29.008Z,16.90
2022-12-14T07:19:55.796Z,16.60
2022-12-14T07:22:22.341Z,17.40
2022-12-14T07:24:48.842Z,17.60
2022-12-14T07:27:17.259Z,16.60
2022-12-14T07:29:44.859Z,15.70
2022-12-14T07:32:11.496Z,15.70
2022-12-14T07:34:38.053Z,15.40
2022-12-14T07:37:04.783Z,15.10
2022-12-14T07:39:31.431Z,15.00
2022-12-14T07:41:58.111Z,14.30
2022-12-14T07:44:24.674Z,14.20
2022-12-14T07:46:52.381Z,13.30
2022-12-14T07:49:18.945Z,13.60
2022-12-14T07:51:45.912Z,13.80
2022-12-14T07:54:12.764Z,12.30
2022-12-14T07:56:40.699Z,12.20
2022-12-14T07:59:10.772Z,12.20
2022-12-14T08:01:37.762Z,12.30
2022-12-14T08:04:05.035Z,12.20
2022-12-14T08:06:31.848Z,12.20
2022-12-14T08:08:58.923Z,12.20
2022-12-14T08:11:25.575Z,12.50
2022-12-14T08:13:56.330Z,12.20
2022-12-14T08:16:23.577Z,12.20
2022-12-14T08:18:50.536Z,12.70
2022-12-14T08:21:20.875Z,12.30
2022-12-14T08:23:48.040Z,12.40
2022-12-14T08:26:15.045Z,11.60
2022-12-14T08:28:41.711Z,11.20
2022-12-14T08:31:09.873Z,11.20
2022-12-14T08:33:37.479Z,10.70
2022-12-14T08:36:05.019Z,10.20
2022-12-14T08:38:31.497Z,11.70
2022-12-14T08:41:01.805Z,10.10
2022-12-14T08:43:28.821Z,9.40
2022-12-14T08:45:55.759Z,12.30
2022-12-14T08:48:22.291Z,10.60
2022-12-14T08:50:49.822Z,12.50
2022-12-14T08:53:16.678Z,12.50
2022-12-14T08:55:43.461Z,10.80
2022-12-14T08:58:10.395Z,9.90
2022-12-14T09:00:39.919Z,10.00
2022-12-14T09:03:06.671Z,8.90
2022-12-14T09:05:34.416Z,8.60
2022-12-14T09:08:00.920Z,7.80
2022-12-14T09:10:27.571Z,7.50
2022-12-14T09:12:54.248Z,7.10
2022-12-14T09:15:20.758Z,6.50
2022-12-14T09:17:49.208Z,6.90
2022-12-14T09:20:15.791Z,5.70
2022-12-14T09:22:42.359Z,6.40
2022-12-14T09:25:09.372Z,6.30
2022-12-14T09:27:36.025Z,8.40
2022-12-14T09:30:02.844Z,16.50
2022-12-14T09:32:29.677Z,12.20
2022-12-14T09:34:56.236Z,8.20
2022-12-14T09:37:22.755Z,8.10
2022-12-14T09:39:49.322Z,7.30
2022-12-14T09:42:21.033Z,6.60
2022-12-14T09:44:50.521Z,6.60
2022-12-14T09:47:29.666Z,7.90
2022-12-14T09:50:04.941Z,6.70
2022-12-14T09:52:40.911Z,8.10
2022-12-14T09:55:16.547Z,10.10
2022-12-14T09:57:43.381Z,11.60
2022-12-14T10:00:14.623Z,12.80
2022-12-14T10:02:48.302Z,13.60
2022-12-14T10:05:14.924Z,16.10
2022-12-14T10:07:47.410Z,21.50
2022-12-14T10:10:18.854Z,24.90
2022-12-14T10:12:51.447Z,30.10
2022-12-14T10:15:31.086Z,34.00
2022-12-14T10:18:00.355Z,40.80
2022-12-14T10:20:29.993Z,43.40
2022-12-14T10:22:56.763Z,47.60
2022-12-14T10:25:24.746Z,51.20
2022-12-14T10:28:15.229Z,51.00
2022-12-14T10:30:42.313Z,52.10
2022-12-14T10:33:13.449Z,56.10
2022-12-14T10:35:56.607Z,59.30
2022-12-14T10:38:44.634Z,60.90
2022-12-14T10:41:18.727Z,61.00
2022-12-14T10:44:04.066Z,61.10
2022-12-14T10:46:33.698Z,61.10
2022-12-14T10:49:00.247Z,61.10
2022-12-14T10:51:43.046Z,61.10
2022-12-14T10:54:28.280Z,61.10
2022-12-14T10:56:55.255Z,61.20
2022-12-14T10:59:21.864Z,60.60
2022-12-14T11:01:51.626Z,59.70
2022-12-14T11:04:29.796Z,59.40
2022-12-14T11:06:58.274Z,59.10
2022-12-14T11:09:26.030Z,59.30
2022-12-14T11:12:11.569Z,59.40
2022-12-14T11:14:38.355Z,58.60
2022-12-14T11:17:05.586Z,57.40
2022-12-14T11:19:32.314Z,57.60
2022-12-14T11:22:07.203Z,57.90
2022-12-14T11:24:42.470Z,56.80
2022-12-14T11:27:10.316Z,57.50
2022-12-14T11:29:39.261Z,56.60
2022-12-14T11:32:06.525Z,56.90
2022-12-14T11:34:34.652Z,55.40
2022-12-14T11:37:11.162Z,54.70
2022-12-14T11:39:39.864Z,55.40
2022-12-14T11:42:06.804Z,55.00
2022-12-14T11:44:36.842Z,56.40
2022-12-14T11:47:08.427Z,57.40
2022-12-14T11:49:38.059Z,56.70
2022-12-14T11:52:04.591Z,59.20
2022-12-14T11:54:31.887Z,58.40
2022-12-14T11:57:02.948Z,58.10
2022-12-14T11:59:32.355Z,57.50
2022-12-14T12:02:07.696Z,60.10
2022-12-14T12:04:41.270Z,61.40
2022-12-14T12:07:21.869Z,61.50
2022-12-14T12:09:48.426Z,60.10
2022-12-14T12:12:16.280Z,56.70
2022-12-14T12:14:44.416Z,59.30
2022-12-14T12:17:38.919Z,60.10
2022-12-14T12:20:18.081Z,60.10
2022-12-14T12:22:47.631Z,59.20
2022-12-14T12:25:26.620Z,57.40
2022-12-14T12:28:15.537Z,56.80
2022-12-14T12:30:44.167Z,58.20
2022-12-14T12:33:22.873Z,59.20
2022-12-14T12:35:50.497Z,59.10
2022-12-14T12:38:37.701Z,57.80
2022-12-14T12:41:23.224Z,57.60
2022-12-14T12:43:54.548Z,59.40
2022-12-14T12:46:29.716Z,62.10
2022-12-14T12:49:10.497Z,61.60
2022-12-14T12:51:58.887Z,61.70
2022-12-14T12:54:34.383Z,61.60
2022-12-14T12:57:02.430Z,61.60
2022-12-14T12:59:40.692Z,61.60
2022-12-14T13:02:13.467Z,61.60
2022-12-14T13:04:40.849Z,62.50
2022-12-14T13:07:14.798Z,62.00
2022-12-14T13:09:44.003Z,62.40
2022-12-14T13:12:33.512Z,63.90
2022-12-14T13:15:02.032Z,63.50
2022-12-14T13:17:33.540Z,63.40
2022-12-14T13:20:01.816Z,64.00
2022-12-14T13:22:29.480Z,63.60
2022-12-14T13:25:02.763Z,61.70
2022-12-14T13:27:34.751Z,61.60
2022-12-14T13:30:05.576Z,61.60
2022-12-14T13:32:47.238Z,61.70
2022-12-14T13:35:36.081Z,61.70
2022-12-14T13:38:08.966Z,61.70
2022-12-14T13:40:40.239Z,61.70
2022-12-14T13:43:15.630Z,61.80
2022-12-14T13:45:43.539Z,63.10
2022-12-14T13:48:23.802Z,62.80
2022-12-14T13:51:01.944Z,61.70
2022-12-14T13:53:48.542Z,61.70
2022-12-14T13:56:21.907Z,61.70
2022-12-14T13:58:50.608Z,62.00
2022-12-14T14:01:51.627Z,63.50
2022-12-14T14:04:21.105Z,64.90
2022-12-14T14:06:51.945Z,65.10
2022-12-14T14:09:30.489Z,64.80
2022-12-14T14:12:17.315Z,64.90
2022-12-14T14:14:50.679Z,66.00
2022-12-14T14:17:25.259Z,67.60
2022-12-14T14:19:56.229Z,67.10
2022-12-14T14:22:25.695Z,67.00
2022-12-14T14:25:02.304Z,66.50
2022-12-14T14:27:39.529Z,67.10
2022-12-14T14:30:28.943Z,67.70
2022-12-14T14:33:07.520Z,68.50
2022-12-14T14:35:40.180Z,70.10
2022-12-14T14:38:27.699Z,70.10
2022-12-14T14:41:15.967Z,70.10
2022-12-14T14:43:49.660Z,70.10
2022-12-14T14:46:22.244Z,70.10
2022-12-14T14:48:51.423Z,70.10
2022-12-14T14:51:28.720Z,70.10
2022-12-14T14:54:30.408Z,70.00
2022-12-14T14:57:00.880Z,70.10
2022-12-14T14:59:28.785Z,70.00
2022-12-14T15:02:00.579Z,70.10
2022-12-14T15:04:42.901Z,70.80
2022-12-14T15:07:13.755Z,71.70
2022-12-14T15:09:44.055Z,72.60
2022-12-14T15:12:33.067Z,72.80
2022-12-14T15:15:04.639Z,72.90
2022-12-14T15:17:31.498Z,74.10
2022-12-14T15:20:02.377Z,74.20
2022-12-14T15:22:30.656Z,74.20
2022-12-14T15:24:58.932Z,74.40
2022-12-14T15:27:25.430Z,75.10
2022-12-14T15:29:52.174Z,74.10
2022-12-14T15:32:21.155Z,74.50
2022-12-14T15:34:58.369Z,74.30
2022-12-14T15:37:26.947Z,74.50
2022-12-14T15:40:00.414Z,74.90
2022-12-14T15:42:27.148Z,74.90
2022-12-14T15:44:55.113Z,74.30
2022-12-14T15:47:26.290Z,74.20
2022-12-14T15:49:57.674Z,73.30
2022-12-14T15:52:30.181Z,73.50
2022-12-14T15:54:57.369Z,73.40
2022-12-14T15:57:24.324Z,73.80
2022-12-14T15:59:52.542Z,74.10
2022-12-14T16:02:19.184Z,74.50
2022-12-14T16:04:46.036Z,75.10
2022-12-14T16:07:26.060Z,75.90
2022-12-14T16:09:57.827Z,75.00
2022-12-14T16:12:44.191Z,75.00
2022-12-14T16:15:22.302Z,74.50
2022-12-14T16:17:49.835Z,74.20
2022-12-14T16:20:22.513Z,74.30
2022-12-14T16:23:00.701Z,75.10
2022-12-14T16:25:27.575Z,74.30
2022-12-14T16:27:54.134Z,74.90
2022-12-14T16:30:22.021Z,75.50
2022-12-14T16:32:53.127Z,76.40
2022-12-14T16:35:24.959Z,76.10
2022-12-14T16:37:53.591Z,76.10
2022-12-14T16:40:26.176Z,76.50
2022-12-14T16:42:52.742Z,78.10
2022-12-14T16:45:53.855Z,76.90
2022-12-14T16:48:22.181Z,76.70
2022-12-14T16:50:57.434Z,78.80
2022-12-14T16:53:29.588Z,77.10
2022-12-14T16:56:06.888Z,76.30
2022-12-14T16:58:34.883Z,76.30
2022-12-14T17:01:03.245Z,75.80
2022-12-14T17:03:31.781Z,75.90
2022-12-14T17:06:00.519Z,75.80
2022-12-14T17:08:27.597Z,74.80
2022-12-14T17:10:54.164Z,74.40
2022-12-14T17:13:20.723Z,72.60
2022-12-14T17:15:56.614Z,71.80
2022-12-14T17:18:25.777Z,72.00
2022-12-14T17:20:52.496Z,71.50
2022-12-14T17:23:19.813Z,70.40
2022-12-14T17:25:48.117Z,70.30
2022-12-14T17:28:25.467Z,70.30
2022-12-14T17:30:56.084Z,70.30
2022-12-14T17:33:23.794Z,70.40
2022-12-14T17:35:50.379Z,70.30
2022-12-14T17:38:18.092Z,70.40
2022-12-14T17:40:45.554Z,70.40
2022-12-14T17:43:13.502Z,70.40
2022-12-14T17:45:40.397Z,71.30
2022-12-14T17:48:11.246Z,72.80
2022-12-14T17:50:38.670Z,72.30
2022-12-14T17:53:05.268Z,72.50
2022-12-14T17:55:32.516Z,72.30
2022-12-14T17:57:59.608Z,73.40
2022-12-14T18:00:45.613Z,74.10
2022-12-14T18:03:12.988Z,72.90
2022-12-14T18:05:46.589Z,74.20
2022-12-14T18:08:15.675Z,73.30
2022-12-14T18:10:42.202Z,72.90
2022-12-14T18:13:10.110Z,73.20
2022-12-14T18:15:41.094Z,73.60
2022-12-14T18:18:08.049Z,73.30
2022-12-14T18:20:35.439Z,73.40
2022-12-14T18:23:02.122Z,74.20
2022-12-14T18:25:33.613Z,75.00
2022-12-14T18:28:01.357Z,74.40
2022-12-14T18:30:32.113Z,74.10
2022-12-14T18:33:03.555Z,73.40
2022-12-14T18:35:31.495Z,73.50
2022-12-14T18:37:58.489Z,73.00
2022-12-14T18:40:26.692Z,73.70
2022-12-14T18:42:53.809Z,72.90
2022-12-14T18:45:21.549Z,73.20
2022-12-14T18:47:48.693Z,73.70
2022-12-14T18:50:16.050Z,74.10
2022-12-14T18:52:43.074Z,74.10
2022-12-14T18:55:15.918Z,74.50
2022-12-14T18:57:42.709Z,74.10
2022-12-14T19:00:12.305Z,73.30
2022-12-14T19:02:39.391Z,72.00
2022-12-14T19:05:06.292Z,72.40
2022-12-14T19:07:32.881Z,72.40
2022-12-14T19:10:00.074Z,71.60
2022-12-14T19:12:26.642Z,71.20
2022-12-14T19:14:53.172Z,71.00
2022-12-14T19:17:19.686Z,71.60
2022-12-14T19:19:46.264Z,71.30
2022-12-14T19:22:12.765Z,71.60
2022-12-14T19:24:39.415Z,72.10
2022-12-14T19:27:06.118Z,71.60
2022-12-14T19:29:32.825Z,72.10
2022-12-14T19:32:05.035Z,71.60
2022-12-14T19:34:32.296Z,71.60
2022-12-14T19:36:58.845Z,71.20
2022-12-14T19:39:25.349Z,71.30
2022-12-14T19:41:54.083Z,70.70
2022-12-14T19:44:20.577Z,70.00
2022-12-14T19:46:47.166Z,70.10
2022-12-14T19:49:15.228Z,70.00
2022-12-14T19:51:41.788Z,70.00
2022-12-14T19:54:08.341Z,70.00
2022-12-14T19:56:34.950Z,68.80
2022-12-14T19:59:03.493Z,68.30
2022-12-14T20:01:37.638Z,69.90
2022-12-14T20:04:06.535Z,68.50
2022-12-14T20:06:33.514Z,68.30
2022-12-14T20:09:04.225Z,68.90
2022-12-14T20:11:30.839Z,69.70
2022-12-14T20:14:02.482Z,69.90
2022-12-14T20:16:29.857Z,69.60
2022-12-14T20:18:57.111Z,68.60
2022-12-14T20:21:24.170Z,67.80
2022-12-14T20:23:50.819Z,68.00
2022-12-14T20:26:18.816Z,68.50
2022-12-14T20:28:49.060Z,69.30
2022-12-14T20:31:15.814Z,69.80
2022-12-14T20:33:42.807Z,69.90
2022-12-14T20:36:09.682Z,69.40
2022-12-14T20:38:36.248Z,69.80
2022-12-14T20:41:03.698Z,69.80
2022-12-14T20:43:33.035Z,69.90
2022-12-14T20:45:59.916Z,69.10
2022-12-14T20:48:26.441Z,69.90
2022-12-14T20:50:58.978Z,69.60
2022-12-14T20:53:26.148Z,68.10
2022-12-14T20:55:52.660Z,67.10
2022-12-14T20:58:19.266Z,66.10
2022-12-14T21:00:45.842Z,65.70
2022-12-14T21:03:12.610Z,65.50
2022-12-14T21:05:40.724Z,65.70
2022-12-14T21:08:07.302Z,65.90
2022-12-14T21:10:34.088Z,65.70
2022-12-14T21:13:05.812Z,64.80
2022-12-14T21:15:35.316Z,65.60
2022-12-14T21:18:02.407Z,65.30
2022-12-14T21:20:28.942Z,64.60
2022-12-14T21:22:55.487Z,63.50
2022-12-14T21:25:22.042Z,61.30
2022-12-14T21:27:48.565Z,61.30
2022-12-14T21:30:16.995Z,61.30
2022-12-14T21:32:43.635Z,61.40
2022-12-14T21:35:10.497Z,61.30
2022-12-14T21:37:37.637Z,61.30
2022-12-14T21:40:04.450Z,61.30
2022-12-14T21:42:30.997Z,61.50
2022-12-14T21:44:57.680Z,61.30
2022-12-14T21:47:28.440Z,61.60
2022-12-14T21:49:55.414Z,63.00
2022-12-14T21:52:23.250Z,62.00
2022-12-14T21:54:49.832Z,62.00
2022-12-14T21:57:36.486Z,61.50
2022-12-14T22:00:04.295Z,59.70
2022-12-14T22:02:31.452Z,60.20
2022-12-14T22:04:58.146Z,58.80
2022-12-14T22:07:26.363Z,57.70
2022-12-14T22:09:53.029Z,58.50
2022-12-14T22:12:19.535Z,58.20
2022-12-14T22:14:46.320Z,60.00
2022-12-14T22:17:13.412Z,61.20
2022-12-14T22:19:40.080Z,61.30
2022-12-14T22:22:06.700Z,61.30
2022-12-14T22:24:33.429Z,60.90
2022-12-14T22:27:00.151Z,61.30
2022-12-14T22:29:26.832Z,59.70
2022-12-14T22:31:53.627Z,59.10
2022-12-14T22:34:21.447Z,58.90
2022-12-14T22:36:49.433Z,59.50
2022-12-14T22:39:16.925Z,58.60
2022-12-14T22:41:43.477Z,59.50
2022-12-14T22:44:11.039Z,59.10
2022-12-14T22:46:37.604Z,58.60
2022-12-14T22:49:04.182Z,59.00
2022-12-14T22:51:30.839Z,59.10
2022-12-14T22:53:57.749Z,58.00
2022-12-14T22:56:33.275Z,56.80
2022-12-14T22:59:06.109Z,56.40
2022-12-14T23:01:33.855Z,57.20
2022-12-14T23:04:00.801Z,56.80
2022-12-14T23:06:28.073Z,57.90
2022-12-14T23:09:13.246Z,57.70
2022-12-14T23:11:58.184Z,57.40
2022-12-14T23:14:43.385Z,57.30
2022-12-14T23:17:28.493Z,57.40
2022-12-14T23:20:13.537Z,56.40
2022-12-14T23:22:58.740Z,56.20
2022-12-14T23:25:43.830Z,56.50
2022-12-14T23:28:28.957Z,56.80
2022-12-14T23:31:17.435Z,56.90
2022-12-14T23:34:02.748Z,57.50
2022-12-14T23:36:48.177Z,56.50
2022-12-14T23:39:33.238Z,58.00
2022-12-14T23:42:18.481Z,57.50
2022-12-14T23:45:03.572Z,59.60
2022-12-14T23:47:49.393Z,56.20
2022-12-14T23:50:34.987Z,54.90
2022-12-14T23:53:26.782Z,55.50
2022-12-14T23:56:12.055Z,56.20
2022-12-14T23:58:57.273Z,55.80
